Berlin, Michigan
Current Conditions -  °F | °C
As of 12:14 PM on Saturday 25 Oct 2014 (Local Time) from KD95 Reporting Station
Overcast Overcast  
Wind Chill: 59°   Ceiling: 1600
Heat Index: 59°   Visibility: 10mi
Dew Point: 50°   Wind: 13mph
Humidity: 73%   Direction: 290°WNW
Pressure: 29.77"   Gusts: 21mph
Location:  42.9384°N, 82.9255°W
Report Text: KD95 251614Z AUTO 29011G18KT 10SM BKN016 OVC022 15/10 A2977 RMK AO2 T01500102
Loading
Personal Weather Stations






























Interactive Weather Map New forecast layout! Learn more

10-Day Weather Forecast

Advertisements
Track Severe Weather on mobile